createdAt,value
2022-07-28T00:00:20.567Z,3.90
2022-07-28T00:02:52.479Z,3.30
2022-07-28T00:05:24.264Z,3.63
2022-07-28T00:07:56.432Z,3.67
2022-07-28T00:10:28.271Z,3.70
2022-07-28T00:13:00.467Z,3.50
2022-07-28T00:15:32.327Z,3.97
2022-07-28T00:18:04.508Z,3.90
2022-07-28T00:20:36.395Z,3.10
2022-07-28T00:23:08.143Z,3.60
2022-07-28T00:25:39.845Z,3.67
2022-07-28T00:28:11.566Z,3.97
2022-07-28T00:30:43.271Z,4.20
2022-07-28T00:33:15.194Z,4.20
2022-07-28T00:35:48.563Z,5.30
2022-07-28T00:38:20.470Z,3.40
2022-07-28T00:41:13.347Z,3.60
2022-07-28T00:43:47.282Z,3.30
2022-07-28T00:46:20.578Z,4.07
2022-07-28T00:48:54.436Z,3.70
2022-07-28T00:51:27.700Z,4.53
2022-07-28T00:53:59.592Z,4.57
2022-07-28T00:56:33.147Z,4.27
2022-07-28T00:59:04.947Z,5.40
2022-07-28T01:01:36.984Z,3.87
2022-07-28T01:04:09.076Z,4.00
2022-07-28T01:06:59.896Z,3.90
2022-07-28T01:10:01.326Z,5.30
2022-07-28T01:12:33.080Z,3.77
2022-07-28T01:15:19.395Z,3.90
2022-07-28T01:18:37.467Z,3.93
2022-07-28T01:21:13.126Z,3.30
2022-07-28T01:24:15.072Z,4.00
2022-07-28T01:26:47.267Z,3.70
2022-07-28T01:29:32.168Z,4.03
2022-07-28T01:32:13.224Z,3.30
2022-07-28T01:35:10.989Z,3.77
2022-07-28T01:37:49.832Z,4.10
2022-07-28T01:40:26.245Z,4.27
2022-07-28T01:43:01.610Z,4.10
2022-07-28T01:45:34.404Z,4.20
2022-07-28T01:48:08.379Z,4.57
2022-07-28T01:50:41.859Z,4.10
2022-07-28T01:53:16.110Z,4.33
2022-07-28T01:55:50.061Z,4.53
2022-07-28T01:58:25.673Z,4.57
2022-07-28T02:01:00.424Z,3.70
2022-07-28T02:03:34.559Z,4.10
2022-07-28T02:06:07.457Z,4.30
2022-07-28T02:08:40.970Z,5.10
2022-07-28T02:11:31.022Z,4.00
2022-07-28T02:14:04.390Z,3.80
2022-07-28T02:16:37.759Z,4.87
2022-07-28T02:19:11.335Z,4.40
2022-07-28T02:21:47.663Z,4.13
2022-07-28T02:24:26.323Z,3.90
2022-07-28T02:27:08.290Z,5.90
2022-07-28T02:29:51.262Z,7.60
2022-07-28T02:32:37.911Z,4.17
2022-07-28T02:35:23.708Z,6.43
2022-07-28T02:38:02.662Z,6.20
2022-07-28T02:40:37.051Z,4.43
2022-07-28T02:43:14.317Z,3.80
2022-07-28T02:45:49.170Z,5.33
2022-07-28T02:48:27.630Z,4.50
2022-07-28T02:51:02.091Z,4.50
2022-07-28T02:53:35.374Z,4.50
2022-07-28T02:56:09.071Z,4.57
2022-07-28T02:58:41.353Z,4.33
2022-07-28T03:01:13.782Z,4.43
2022-07-28T03:03:48.240Z,5.33
2022-07-28T03:06:28.340Z,3.70
2022-07-28T03:09:01.288Z,4.82
2022-07-28T03:11:34.052Z,4.83
2022-07-28T03:14:06.272Z,4.50
2022-07-28T03:16:38.029Z,5.00
2022-07-28T03:19:10.398Z,4.43
2022-07-28T03:21:42.171Z,4.33
2022-07-28T03:24:14.196Z,10.97
2022-07-28T03:26:53.695Z,4.27
2022-07-28T03:29:27.708Z,5.57
2022-07-28T03:32:00.574Z,4.27
2022-07-28T03:34:32.436Z,5.78
2022-07-28T03:37:11.868Z,4.83
2022-07-28T03:39:48.079Z,7.73
2022-07-28T03:42:21.009Z,4.93
2022-07-28T03:44:54.060Z,5.60
2022-07-28T03:47:25.879Z,4.27
2022-07-28T03:49:57.804Z,4.93
2022-07-28T03:52:29.524Z,5.67
2022-07-28T03:55:01.305Z,5.40
2022-07-28T03:57:33.039Z,7.07
2022-07-28T04:00:09.533Z,4.67
2022-07-28T04:02:43.826Z,4.57
2022-07-28T04:05:17.592Z,4.53
2022-07-28T04:07:49.349Z,7.00
2022-07-28T04:10:21.136Z,7.37
2022-07-28T04:12:57.429Z,7.30
2022-07-28T04:15:31.033Z,5.43
2022-07-28T04:18:02.761Z,4.10
2022-07-28T04:20:34.624Z,5.30
2022-07-28T04:23:07.051Z,4.77
2022-07-28T04:25:38.954Z,5.53
2022-07-28T04:28:12.023Z,5.63
2022-07-28T04:30:44.796Z,4.90
2022-07-28T04:33:19.336Z,5.10
2022-07-28T04:35:54.345Z,5.20
2022-07-28T04:38:26.154Z,4.50
2022-07-28T04:40:57.998Z,4.33
2022-07-28T04:43:29.805Z,4.57
2022-07-28T04:46:01.704Z,5.60
2022-07-28T04:48:33.454Z,4.80
2022-07-28T04:51:05.371Z,5.60
2022-07-28T04:53:37.127Z,4.87
2022-07-28T04:56:08.859Z,4.43
2022-07-28T04:58:41.049Z,8.33
2022-07-28T05:01:14.934Z,4.23
2022-07-28T05:03:46.650Z,4.70
2022-07-28T05:06:18.643Z,4.40
2022-07-28T05:08:50.850Z,4.27
2022-07-28T05:11:22.594Z,5.50
2022-07-28T05:13:54.371Z,5.00
2022-07-28T05:16:26.196Z,5.33
2022-07-28T05:18:57.963Z,4.50
2022-07-28T05:21:29.671Z,5.83
2022-07-28T05:24:01.483Z,4.83
2022-07-28T05:26:33.281Z,4.67
2022-07-28T05:29:05.101Z,4.67
2022-07-28T05:31:36.939Z,5.50
2022-07-28T05:34:08.788Z,5.60
2022-07-28T05:36:40.623Z,5.17
2022-07-28T05:39:12.419Z,6.30
2022-07-28T05:41:44.251Z,5.50
2022-07-28T05:44:16.242Z,5.07
2022-07-28T05:46:48.253Z,5.53
2022-07-28T05:49:21.989Z,5.63
2022-07-28T05:51:53.866Z,4.93
2022-07-28T05:54:25.906Z,5.00
2022-07-28T05:56:57.789Z,5.30
2022-07-28T05:59:29.610Z,7.47
2022-07-28T06:02:01.642Z,5.80
2022-07-28T06:04:33.862Z,5.37
2022-07-28T06:07:05.987Z,5.47
2022-07-28T06:09:42.012Z,5.77
2022-07-28T06:12:16.610Z,6.73
2022-07-28T06:14:48.407Z,6.20
2022-07-28T06:17:20.239Z,5.57
2022-07-28T06:19:52.040Z,10.90
2022-07-28T06:22:23.883Z,5.47
2022-07-28T06:24:55.886Z,6.30
2022-07-28T06:27:27.926Z,6.17
2022-07-28T06:29:59.669Z,6.60
2022-07-28T06:32:31.385Z,6.10
2022-07-28T06:35:03.511Z,6.90
2022-07-28T06:37:35.486Z,6.50
2022-07-28T06:40:08.975Z,7.50
2022-07-28T06:42:42.190Z,6.37
2022-07-28T06:45:20.752Z,7.67
2022-07-28T06:47:53.823Z,8.40
2022-07-28T06:50:27.147Z,8.60
2022-07-28T06:52:59.482Z,7.80
2022-07-28T06:55:35.041Z,9.40
2022-07-28T06:58:07.812Z,7.90
2022-07-28T07:00:39.630Z,12.80
2022-07-28T07:03:11.468Z,9.90
2022-07-28T07:05:43.296Z,9.40
2022-07-28T07:08:15.040Z,8.97
2022-07-28T07:10:46.784Z,8.30
2022-07-28T07:13:18.915Z,10.40
2022-07-28T07:15:50.724Z,8.93
2022-07-28T07:18:22.552Z,9.70
2022-07-28T07:20:56.507Z,12.23
2022-07-28T07:23:28.287Z,9.83
2022-07-28T07:26:00.112Z,10.13
2022-07-28T07:28:32.375Z,9.80
2022-07-28T07:31:04.298Z,11.83
2022-07-28T07:33:36.157Z,11.77
2022-07-28T07:36:08.008Z,10.13
2022-07-28T07:38:39.822Z,11.33
2022-07-28T07:41:12.332Z,9.60
2022-07-28T07:43:47.582Z,9.93
2022-07-28T07:46:19.592Z,11.10
2022-07-28T07:48:51.478Z,9.80
2022-07-28T07:51:23.212Z,12.03
2022-07-28T07:53:54.946Z,11.47
2022-07-28T07:56:26.686Z,9.33
2022-07-28T07:58:58.741Z,10.40
2022-07-28T08:01:30.566Z,10.60
2022-07-28T08:04:02.380Z,9.20
2022-07-28T08:06:35.883Z,10.60
2022-07-28T08:09:07.772Z,10.00
2022-07-28T08:11:39.665Z,11.97
2022-07-28T08:14:12.006Z,8.77
2022-07-28T08:16:44.139Z,10.77
2022-07-28T08:19:16.001Z,11.13
2022-07-28T08:21:53.355Z,10.23
2022-07-28T08:24:29.047Z,10.40
2022-07-28T08:27:05.747Z,11.97
2022-07-28T08:29:37.503Z,12.43
2022-07-28T08:32:09.459Z,11.77
2022-07-28T08:34:41.286Z,13.60
2022-07-28T08:37:13.071Z,10.63
2022-07-28T08:39:45.054Z,11.30
2022-07-28T08:42:28.880Z,10.20
2022-07-28T08:45:07.283Z,9.90
2022-07-28T08:47:58.782Z,10.63
2022-07-28T08:50:32.007Z,10.90
2022-07-28T08:53:04.751Z,11.33
2022-07-28T08:55:37.160Z,9.10
2022-07-28T08:58:11.871Z,9.70
2022-07-28T09:00:43.949Z,9.88
2022-07-28T09:03:17.347Z,10.40
2022-07-28T09:05:50.286Z,10.50
2022-07-28T09:08:22.715Z,10.85
2022-07-28T09:10:55.191Z,9.77
2022-07-28T09:13:26.911Z,9.85
2022-07-28T09:16:00.118Z,9.65
2022-07-28T09:18:31.978Z,9.30
2022-07-28T09:21:03.729Z,9.00
2022-07-28T09:23:46.217Z,9.27
2022-07-28T09:26:18.203Z,9.32
2022-07-28T09:28:58.130Z,8.00
2022-07-28T09:31:30.828Z,9.27
2022-07-28T09:34:05.984Z,10.50
2022-07-28T09:36:40.483Z,10.15
2022-07-28T09:39:27.407Z,8.88
2022-07-28T09:41:59.859Z,9.07
2022-07-28T09:44:31.620Z,10.20
2022-07-28T09:47:33.153Z,9.13
2022-07-28T09:50:05.762Z,9.10
2022-07-28T09:52:38.789Z,9.25
2022-07-28T09:55:11.859Z,9.18
2022-07-28T09:57:45.953Z,9.43
2022-07-28T10:00:27.818Z,9.13
2022-07-28T10:02:59.729Z,9.02
2022-07-28T10:05:45.056Z,8.32
2022-07-28T10:08:16.950Z,8.40
2022-07-28T10:11:02.160Z,9.95
2022-07-28T10:13:34.242Z,8.95
2022-07-28T10:16:13.298Z,8.60
2022-07-28T10:18:45.221Z,9.43
2022-07-28T10:21:19.310Z,10.45
2022-07-28T10:23:57.103Z,8.02
2022-07-28T10:26:33.030Z,8.13
2022-07-28T10:29:08.286Z,9.10
2022-07-28T10:31:51.002Z,10.30
2022-07-28T10:34:31.943Z,8.68
2022-07-28T10:37:06.570Z,8.68
2022-07-28T10:39:44.220Z,7.78
2022-07-28T10:42:16.446Z,9.25
2022-07-28T10:44:48.917Z,7.55
2022-07-28T10:47:21.538Z,8.13
2022-07-28T10:49:53.913Z,8.48
2022-07-28T10:55:20.307Z,7.85
2022-07-28T10:58:12.574Z,8.98
2022-07-28T11:01:04.965Z,8.02
2022-07-28T11:03:43.731Z,8.10
2022-07-28T11:06:35.750Z,8.15
2022-07-28T11:09:16.713Z,7.35
2022-07-28T11:11:51.873Z,8.18
2022-07-28T11:14:24.694Z,7.70
2022-07-28T11:17:05.457Z,7.13
2022-07-28T11:20:26.158Z,8.20
2022-07-28T11:22:36.861Z,7.47
2022-07-28T11:25:19.715Z,8.98
2022-07-28T11:27:54.499Z,7.90
2022-07-28T11:30:27.560Z,8.00
2022-07-28T11:33:00.657Z,7.32
2022-07-28T11:35:53.487Z,8.23
2022-07-28T11:38:25.772Z,8.65
2022-07-28T11:40:57.701Z,7.95
2022-07-28T11:43:36.141Z,8.15
2022-07-28T11:46:10.405Z,8.02
2022-07-28T11:48:45.128Z,8.93
2022-07-28T11:51:17.079Z,7.32
2022-07-28T11:53:48.794Z,8.07
2022-07-28T11:56:36.043Z,7.20
2022-07-28T11:59:10.987Z,7.70
2022-07-28T12:01:53.160Z,7.05
2022-07-28T12:04:26.831Z,8.23
2022-07-28T12:06:59.840Z,6.88
2022-07-28T12:09:41.776Z,7.90
2022-07-28T12:12:14.163Z,7.50
2022-07-28T12:14:46.411Z,9.55
2022-07-28T12:17:18.291Z,6.75
2022-07-28T12:19:50.072Z,6.75
2022-07-28T12:22:21.835Z,6.95
2022-07-28T12:24:58.115Z,6.65
2022-07-28T12:27:31.715Z,7.30
2022-07-28T12:30:04.625Z,8.75
2022-07-28T12:32:36.493Z,7.88
2022-07-28T12:35:08.635Z,7.13
2022-07-28T12:37:42.135Z,8.68
2022-07-28T12:40:16.263Z,7.10
2022-07-28T12:42:53.775Z,8.68
2022-07-28T12:45:26.398Z,7.30
2022-07-28T12:48:06.746Z,7.55
2022-07-28T12:50:38.780Z,6.93
2022-07-28T12:53:12.146Z,7.15
2022-07-28T12:55:44.368Z,7.88
2022-07-28T12:58:27.398Z,7.05
2022-07-28T13:00:59.744Z,7.88
2022-07-28T13:03:32.456Z,7.38
2022-07-28T13:06:10.995Z,7.18
2022-07-28T13:08:46.975Z,7.78
2022-07-28T13:14:10.630Z,7.60
2022-07-28T13:16:42.558Z,7.82
2022-07-28T13:19:21.416Z,7.90
2022-07-28T13:22:01.627Z,7.53
2022-07-28T13:24:34.847Z,7.60
2022-07-28T13:27:07.201Z,8.38
2022-07-28T13:29:38.902Z,7.70
2022-07-28T13:32:11.767Z,8.38
2022-07-28T13:34:44.519Z,7.20
2022-07-28T13:37:16.391Z,8.47
2022-07-28T13:39:54.231Z,7.37
2022-07-28T13:42:26.610Z,7.00
2022-07-28T13:44:58.351Z,7.20
2022-07-28T13:47:35.654Z,6.70
2022-07-28T13:50:11.260Z,7.50
2022-07-28T13:52:43.794Z,8.03
2022-07-28T13:55:16.011Z,8.57
2022-07-28T13:57:51.764Z,7.70
2022-07-28T14:00:23.988Z,7.63
2022-07-28T14:02:55.911Z,10.37
2022-07-28T14:05:32.158Z,8.00
2022-07-28T14:08:05.642Z,8.00
2022-07-28T14:10:37.515Z,6.72
2022-07-28T14:13:09.277Z,8.70
2022-07-28T14:15:41.499Z,9.33
2022-07-28T14:18:13.623Z,14.83
2022-07-28T14:20:45.431Z,7.50
2022-07-28T14:23:17.123Z,7.40
2022-07-28T14:25:50.792Z,9.27
2022-07-28T14:28:23.403Z,8.03
2022-07-28T14:30:55.181Z,8.57
2022-07-28T14:33:27.344Z,6.83
2022-07-28T14:35:59.413Z,10.00
2022-07-28T14:41:24.068Z,8.20
2022-07-28T14:43:57.455Z,7.47
2022-07-28T14:46:29.756Z,7.73
2022-07-28T14:49:01.946Z,8.03
2022-07-28T14:51:33.928Z,9.80
2022-07-28T14:54:06.951Z,7.77
2022-07-28T14:56:38.800Z,7.90
2022-07-28T14:59:10.583Z,12.77
2022-07-28T15:01:42.425Z,7.07
2022-07-28T15:04:14.552Z,9.73
2022-07-28T15:06:47.365Z,6.57
2022-07-28T15:09:19.209Z,7.47
2022-07-28T15:11:50.977Z,7.77
2022-07-28T15:14:22.836Z,6.90
2022-07-28T15:16:54.541Z,6.50
2022-07-28T15:19:26.275Z,9.60
2022-07-28T15:21:59.091Z,7.80
2022-07-28T15:24:32.411Z,7.77
2022-07-28T15:27:04.519Z,8.60
2022-07-28T15:29:36.604Z,7.10
2022-07-28T15:32:10.627Z,7.53
2022-07-28T15:34:45.737Z,7.40
2022-07-28T15:37:17.581Z,8.33
2022-07-28T15:39:49.325Z,8.60
2022-07-28T15:42:21.241Z,7.40
2022-07-28T15:44:53.133Z,9.80
2022-07-28T15:47:25.002Z,7.67
2022-07-28T15:49:56.813Z,7.30
2022-07-28T15:52:28.570Z,8.10
2022-07-28T15:55:00.363Z,7.60
2022-07-28T15:57:37.866Z,10.63
2022-07-28T16:00:10.331Z,9.17
2022-07-28T16:02:42.571Z,7.77
2022-07-28T16:05:14.610Z,7.60
2022-07-28T16:07:46.548Z,8.47
2022-07-28T16:10:18.331Z,7.37
2022-07-28T16:12:51.209Z,7.87
2022-07-28T16:15:26.724Z,7.40
2022-07-28T16:17:58.563Z,7.40
2022-07-28T16:20:31.471Z,7.93
2022-07-28T16:23:03.455Z,7.90
2022-07-28T16:25:35.295Z,7.87
2022-07-28T16:28:07.151Z,8.83
2022-07-28T16:30:38.957Z,7.20
2022-07-28T16:33:10.803Z,8.37
2022-07-28T16:35:42.716Z,7.90
2022-07-28T16:38:14.651Z,8.03
2022-07-28T16:40:46.463Z,8.30
2022-07-28T16:43:18.211Z,7.67
2022-07-28T16:45:49.957Z,6.60
2022-07-28T16:48:21.831Z,7.23
2022-07-28T16:50:53.878Z,7.40
2022-07-28T16:53:25.714Z,7.70
2022-07-28T16:55:57.527Z,7.87
2022-07-28T16:58:29.675Z,7.50
2022-07-28T17:01:01.499Z,7.80
2022-07-28T17:03:33.679Z,7.63
2022-07-28T17:06:06.672Z,7.73
2022-07-28T17:08:38.485Z,7.23
2022-07-28T17:11:10.287Z,7.27
2022-07-28T17:13:45.198Z,7.63
2022-07-28T17:16:17.525Z,8.20
2022-07-28T17:18:49.352Z,6.87
2022-07-28T17:21:21.076Z,7.00
2022-07-28T17:23:53.686Z,7.67
2022-07-28T17:29:17.223Z,6.63
2022-07-28T17:31:49.790Z,8.53
2022-07-28T17:34:21.651Z,8.43
2022-07-28T17:36:54.707Z,8.20
2022-07-28T17:39:26.646Z,10.30
2022-07-28T17:41:58.404Z,7.67
2022-07-28T17:44:30.339Z,7.33
2022-07-28T17:47:04.811Z,7.67
2022-07-28T17:49:38.937Z,10.10
2022-07-28T17:52:13.931Z,10.83
2022-07-28T17:55:04.159Z,7.83
2022-07-28T17:57:37.890Z,8.63
2022-07-28T18:00:12.623Z,7.57
2022-07-28T18:02:44.417Z,8.80
2022-07-28T18:05:17.401Z,12.00
2022-07-28T18:07:51.891Z,7.40
2022-07-28T18:10:27.300Z,7.70
2022-07-28T18:12:59.295Z,6.90
2022-07-28T18:15:32.005Z,7.30
2022-07-28T18:18:03.897Z,7.20
2022-07-28T18:20:37.831Z,10.87
2022-07-28T18:23:10.408Z,7.43
2022-07-28T18:25:45.252Z,10.30
2022-07-28T18:28:19.211Z,7.53
2022-07-28T18:30:51.257Z,6.73
2022-07-28T18:33:24.388Z,8.17
2022-07-28T18:35:56.120Z,8.80
2022-07-28T18:38:27.936Z,6.93
2022-07-28T18:40:59.959Z,8.50
2022-07-28T18:43:31.692Z,8.00
2022-07-28T18:46:03.493Z,8.03
2022-07-28T18:48:35.294Z,7.70
2022-07-28T18:51:07.216Z,8.27
2022-07-28T18:53:39.227Z,7.97
2022-07-28T18:56:10.952Z,8.03
2022-07-28T18:58:43.373Z,7.27
2022-07-28T19:01:15.205Z,7.27
2022-07-28T19:03:47.035Z,6.97
2022-07-28T19:06:20.494Z,7.60
2022-07-28T19:08:52.387Z,7.73
2022-07-28T19:11:24.131Z,7.10
2022-07-28T19:13:55.935Z,9.17
2022-07-28T19:16:27.903Z,9.17
2022-07-28T19:18:59.736Z,7.13
2022-07-28T19:21:31.540Z,6.77
2022-07-28T19:24:04.159Z,7.93
2022-07-28T19:26:36.058Z,8.27
2022-07-28T19:29:08.375Z,8.97
2022-07-28T19:31:41.416Z,6.87
2022-07-28T19:34:13.658Z,6.57
2022-07-28T19:36:46.460Z,8.27
2022-07-28T19:39:18.254Z,11.27
2022-07-28T19:41:50.312Z,7.67
2022-07-28T19:44:22.026Z,8.00
2022-07-28T19:46:56.141Z,9.60
2022-07-28T19:49:27.977Z,7.83
2022-07-28T19:51:59.872Z,9.00
2022-07-28T19:54:32.195Z,10.67
2022-07-28T19:57:10.414Z,10.07
2022-07-28T19:59:44.860Z,10.97
2022-07-28T20:02:16.819Z,10.20
2022-07-28T20:04:48.703Z,9.30
2022-07-28T20:07:20.679Z,11.47
2022-07-28T20:09:52.402Z,12.60
2022-07-28T20:12:24.468Z,8.80
2022-07-28T20:14:56.287Z,12.93
2022-07-28T20:17:37.884Z,9.10
2022-07-28T20:20:12.720Z,10.47
2022-07-28T20:22:45.311Z,9.10
2022-07-28T20:25:17.155Z,17.07
2022-07-28T20:27:48.858Z,12.27
2022-07-28T20:30:20.767Z,13.30
2022-07-28T20:32:52.537Z,26.30
2022-07-28T20:35:24.378Z,14.53
2022-07-28T20:37:56.159Z,12.33
2022-07-28T20:40:28.335Z,12.57
2022-07-28T20:43:00.189Z,13.60
2022-07-28T20:45:31.966Z,14.17
2022-07-28T20:48:04.356Z,19.00
2022-07-28T20:50:36.200Z,16.57
2022-07-28T20:53:10.107Z,17.40
2022-07-28T20:55:42.171Z,16.03
2022-07-28T20:58:14.059Z,14.80
2022-07-28T21:00:46.336Z,15.43
2022-07-28T21:03:18.303Z,19.03
2022-07-28T21:05:50.151Z,14.13
2022-07-28T21:08:21.962Z,15.33
2022-07-28T21:10:53.675Z,14.27
2022-07-28T21:13:25.594Z,15.43
2022-07-28T21:15:57.487Z,14.10
2022-07-28T21:18:29.496Z,14.40
2022-07-28T21:21:01.304Z,14.37
2022-07-28T21:23:33.072Z,15.00
2022-07-28T21:26:09.410Z,15.40
2022-07-28T21:28:59.837Z,14.90
2022-07-28T21:31:31.593Z,13.90
2022-07-28T21:34:03.598Z,13.50
2022-07-28T21:36:36.019Z,14.57
2022-07-28T21:39:08.668Z,14.80
2022-07-28T21:41:41.318Z,16.37
2022-07-28T21:44:13.182Z,14.73
2022-07-28T21:46:45.765Z,13.60
2022-07-28T21:49:17.921Z,14.60
2022-07-28T21:51:49.706Z,17.20
2022-07-28T21:54:21.666Z,14.60
2022-07-28T21:56:53.385Z,13.07
2022-07-28T21:59:25.227Z,12.47
2022-07-28T22:01:57.164Z,12.83
2022-07-28T22:04:29.163Z,11.93
2022-07-28T22:07:00.956Z,12.17
2022-07-28T22:09:37.732Z,12.33
2022-07-28T22:12:10.216Z,12.63
2022-07-28T22:14:41.997Z,10.93
2022-07-28T22:17:13.754Z,11.53
2022-07-28T22:19:45.541Z,12.40
2022-07-28T22:22:18.424Z,14.23
2022-07-28T22:24:50.335Z,14.10
2022-07-28T22:27:22.404Z,14.37
2022-07-28T22:29:54.244Z,14.30
2022-07-28T22:32:29.063Z,13.77
2022-07-28T22:35:01.274Z,13.60
2022-07-28T22:37:33.045Z,13.77
2022-07-28T22:40:05.789Z,12.90
2022-07-28T22:42:37.599Z,12.73
2022-07-28T22:45:10.215Z,13.27
2022-07-28T22:47:42.376Z,14.63
2022-07-28T22:50:14.403Z,14.70
2022-07-28T22:52:46.506Z,13.33
2022-07-28T22:55:18.257Z,14.17
2022-07-28T22:57:50.627Z,15.63
2022-07-28T23:00:22.435Z,13.13
2022-07-28T23:02:54.347Z,13.50
2022-07-28T23:05:26.086Z,13.27
2022-07-28T23:07:58.803Z,13.00
2022-07-28T23:10:30.855Z,13.63
2022-07-28T23:13:03.615Z,13.80
2022-07-28T23:15:40.446Z,12.67
2022-07-28T23:18:14.220Z,10.70
2022-07-28T23:20:46.183Z,12.30
2022-07-28T23:23:18.567Z,12.13
2022-07-28T23:25:50.338Z,11.27
2022-07-28T23:28:23.360Z,12.60
2022-07-28T23:30:55.175Z,12.40
2022-07-28T23:33:55.611Z,13.33
2022-07-28T23:36:27.287Z,13.13
2022-07-28T23:38:59.727Z,13.00
2022-07-28T23:41:31.450Z,12.53
2022-07-28T23:44:03.383Z,12.87
2022-07-28T23:46:35.135Z,12.77
2022-07-28T23:49:06.948Z,12.87
2022-07-28T23:51:47.549Z,12.97
2022-07-28T23:54:20.509Z,17.13
2022-07-28T23:56:55.676Z,13.80
2022-07-28T23:59:27.451Z,12.67
